SWA1948 KMDW-KCLT
Flight info
| Callsign | SWA1948 |
|---|---|
| Flight time | N/A |
| Altitude | 35000 |
| Route | EARND ELANR EMMLY ETAME EMEGE FLM TAFTT PARQR4 |
| Aircraft | B38M/M-SDE1FGHILORVWXY/HB1 |
Departure
| Time | 2026-05-05 23:49 |
|---|---|
| Airport | Chicago Midway International Airport (KMDW) |
Arrival
| Time | N/A |
|---|---|
| Airport | Charlotte Douglas International Airport (KCLT) |
| Time | Latitude | Longitude | Altitude | Speed | Heading |
|---|---|---|---|---|---|
| 2026-05-05 23:26 | 41.78431 | -87.74389 | 631 ft | 0 kts | 32° |
| 2026-05-05 23:40 | 41.78429 | -87.74391 | 639 ft | 3 kts | 32° |
| 2026-05-05 23:40 | 41.78411 | -87.74405 | 632 ft | 3 kts | 32° |
| 2026-05-05 23:41 | 41.78396 | -87.74419 | 632 ft | 1 kts | 47° |
| 2026-05-05 23:41 | 41.78393 | -87.74429 | 635 ft | 1 kts | 115° |
| 2026-05-05 23:41 | 41.78397 | -87.74438 | 635 ft | 1 kts | 131° |
| 2026-05-05 23:41 | 41.78403 | -87.74446 | 635 ft | 1 kts | 134° |
| 2026-05-05 23:42 | 41.78407 | -87.74452 | 634 ft | 0 kts | 135° |
| 2026-05-05 23:45 | 41.78404 | -87.74447 | 634 ft | 3 kts | 135° |
| 2026-05-05 23:45 | 41.78370 | -87.74417 | 631 ft | 8 kts | 157° |
| 2026-05-05 23:46 | 41.78315 | -87.74376 | 632 ft | 10 kts | 149° |
| 2026-05-05 23:46 | 41.78248 | -87.74360 | 633 ft | 10 kts | 160° |
| 2026-05-05 23:46 | 41.78197 | -87.74309 | 631 ft | 10 kts | 165° |
| 2026-05-05 23:46 | 41.78122 | -87.74306 | 635 ft | 12 kts | 179° |
| 2026-05-05 23:47 | 41.78040 | -87.74303 | 636 ft | 8 kts | 178° |
| 2026-05-05 23:47 | 41.77980 | -87.74320 | 630 ft | 10 kts | 221° |
| 2026-05-05 23:47 | 41.77962 | -87.74421 | 636 ft | 11 kts | 290° |
| 2026-05-05 23:47 | 41.77981 | -87.74454 | 634 ft | 0 kts | 314° |
| 2026-05-05 23:48 | 41.77986 | -87.74461 | 630 ft | 12 kts | 314° |
| 2026-05-05 23:48 | 41.78263 | -87.74848 | 632 ft | 101 kts | 314° |
| 2026-05-05 23:49 | 41.78918 | -87.75775 | 698 ft | 165 kts | 313° |
| 2026-05-05 23:49 | 41.79725 | -87.76965 | 1542 ft | 176 kts | 305° |
| 2026-05-05 23:49 | 41.80129 | -87.78587 | 2417 ft | 196 kts | 271° |
| 2026-05-05 23:49 | 41.79722 | -87.80372 | 3301 ft | 218 kts | 238° |
| 2026-05-05 23:50 | 41.78542 | -87.81837 | 4194 ft | 240 kts | 217° |
| 2026-05-05 23:50 | 41.77094 | -87.83129 | 5080 ft | 259 kts | 216° |
| 2026-05-05 23:50 | 41.75447 | -87.84203 | 6069 ft | 273 kts | 197° |
| 2026-05-05 23:50 | 41.73547 | -87.84351 | 7273 ft | 280 kts | 174° |
| 2026-05-05 23:51 | 41.71719 | -87.83386 | 8475 ft | 289 kts | 149° |
| 2026-05-05 23:51 | 41.70093 | -87.81781 | 9587 ft | 293 kts | 153° |
| 2026-05-05 23:51 | 41.68356 | -87.80271 | 10506 ft | 302 kts | 153° |
| 2026-05-05 23:51 | 41.66553 | -87.78693 | 11197 ft | 317 kts | 153° |
| 2026-05-05 23:52 | 41.64669 | -87.77029 | 11934 ft | 330 kts | 152° |
| 2026-05-05 23:52 | 41.62731 | -87.75304 | 12749 ft | 340 kts | 152° |
| 2026-05-05 23:52 | 41.60740 | -87.73523 | 13641 ft | 346 kts | 152° |
| 2026-05-05 23:52 | 41.58726 | -87.71721 | 14443 ft | 350 kts | 152° |
| 2026-05-05 23:53 | 41.56723 | -87.69926 | 15317 ft | 352 kts | 153° |
| 2026-05-05 23:53 | 41.54675 | -87.68090 | 16170 ft | 355 kts | 153° |
| 2026-05-05 23:53 | 41.52626 | -87.66255 | 17015 ft | 357 kts | 153° |
| 2026-05-05 23:53 | 41.50548 | -87.64395 | 17849 ft | 360 kts | 154° |
| 2026-05-05 23:54 | 41.48465 | -87.62530 | 18591 ft | 362 kts | 154° |
| 2026-05-05 23:54 | 41.46357 | -87.60645 | 19223 ft | 367 kts | 154° |
| 2026-05-05 23:54 | 41.44222 | -87.58743 | 19851 ft | 370 kts | 156° |
| 2026-05-05 23:54 | 41.41919 | -87.57377 | 20441 ft | 356 kts | 176° |
| 2026-05-05 23:55 | 41.39486 | -87.56828 | 20976 ft | 357 kts | 180° |
| 2026-05-05 23:55 | 41.37020 | -87.56334 | 21589 ft | 360 kts | 181° |
| 2026-05-05 23:55 | 41.34517 | -87.55860 | 22199 ft | 364 kts | 181° |
| 2026-05-05 23:55 | 41.32001 | -87.55403 | 22792 ft | 367 kts | 182° |
| 2026-05-05 23:56 | 41.29444 | -87.54950 | 23387 ft | 371 kts | 182° |
| 2026-05-05 23:56 | 41.26872 | -87.54500 | 23904 ft | 374 kts | 182° |
| 2026-05-05 23:56 | 41.24313 | -87.54054 | 24404 ft | 377 kts | 182° |
| 2026-05-05 23:56 | 41.21702 | -87.53601 | 24899 ft | 380 kts | 183° |
| 2026-05-05 23:57 | 41.19071 | -87.52989 | 25383 ft | 388 kts | 178° |
| 2026-05-05 23:57 | 41.16419 | -87.52243 | 25880 ft | 390 kts | 179° |
| 2026-05-05 23:57 | 41.13751 | -87.51514 | 26317 ft | 393 kts | 179° |
| 2026-05-05 23:57 | 41.11062 | -87.50789 | 26783 ft | 396 kts | 179° |
| 2026-05-05 23:58 | 41.08350 | -87.50064 | 27230 ft | 399 kts | 179° |
| 2026-05-05 23:58 | 41.05614 | -87.49334 | 27669 ft | 402 kts | 179° |
| 2026-05-05 23:58 | 41.02861 | -87.48601 | 28098 ft | 405 kts | 179° |
| 2026-05-05 23:58 | 41.00082 | -87.47862 | 28509 ft | 409 kts | 179° |
| 2026-05-05 23:59 | 40.97284 | -87.47118 | 28917 ft | 412 kts | 179° |
| 2026-05-05 23:59 | 40.94465 | -87.46370 | 29313 ft | 415 kts | 179° |
| 2026-05-05 23:59 | 40.91620 | -87.45615 | 29701 ft | 419 kts | 179° |
| 2026-05-05 23:59 | 40.88756 | -87.44856 | 30060 ft | 422 kts | 180° |
| 2026-05-06 00:00 | 40.85867 | -87.44092 | 30357 ft | 426 kts | 180° |
| 2026-05-06 00:00 | 40.82947 | -87.43319 | 30633 ft | 430 kts | 180° |
| 2026-05-06 00:00 | 40.79997 | -87.42540 | 30917 ft | 434 kts | 180° |
| 2026-05-06 00:00 | 40.77022 | -87.41754 | 31192 ft | 438 kts | 180° |
| 2026-05-06 00:01 | 40.74056 | -87.40971 | 31470 ft | 442 kts | 181° |
| 2026-05-06 00:01 | 40.71022 | -87.40171 | 31747 ft | 446 kts | 181° |
| 2026-05-06 00:01 | 40.67973 | -87.39368 | 32017 ft | 449 kts | 181° |
| 2026-05-06 00:01 | 40.64890 | -87.38557 | 32301 ft | 453 kts | 182° |
| 2026-05-06 00:02 | 40.61785 | -87.37741 | 32568 ft | 457 kts | 182° |
| 2026-05-06 00:02 | 40.58663 | -87.36920 | 32887 ft | 459 kts | 182° |
| 2026-05-06 00:02 | 40.55529 | -87.36098 | 33244 ft | 460 kts | 182° |
| 2026-05-06 00:02 | 40.52385 | -87.35274 | 33588 ft | 461 kts | 183° |
| 2026-05-06 00:03 | 40.49225 | -87.34446 | 33926 ft | 463 kts | 183° |
| 2026-05-06 00:03 | 40.46100 | -87.33435 | 34219 ft | 481 kts | 173° |
| 2026-05-06 00:03 | 40.43009 | -87.31372 | 34583 ft | 505 kts | 157° |
| 2026-05-06 00:03 | 40.40112 | -87.28690 | 34832 ft | 510 kts | 156° |
| 2026-05-06 00:04 | 40.34346 | -87.23347 | 34897 ft | 510 kts | 156° |
| 2026-05-06 00:04 | 40.28556 | -87.17941 | 34890 ft | 510 kts | 155° |
| 2026-05-06 00:05 | 40.19879 | -87.09858 | 34891 ft | 510 kts | 155° |
| 2026-05-06 00:06 | 40.14092 | -87.04481 | 34865 ft | 511 kts | 155° |
| 2026-05-06 00:06 | 40.08287 | -86.99100 | 34867 ft | 511 kts | 155° |
| 2026-05-06 00:07 | 40.02488 | -86.93733 | 34870 ft | 510 kts | 155° |
| 2026-05-06 00:07 | 39.96621 | -86.88587 | 34869 ft | 504 kts | 160° |
| 2026-05-06 00:08 | 39.90672 | -86.83714 | 34860 ft | 505 kts | 159° |
| 2026-05-06 00:08 | 39.84780 | -86.78849 | 34870 ft | 505 kts | 159° |
| 2026-05-06 00:09 | 39.78854 | -86.73961 | 34874 ft | 503 kts | 159° |
| 2026-05-06 00:09 | 39.72989 | -86.68940 | 34862 ft | 513 kts | 149° |
| 2026-05-06 00:09 | 39.70495 | -86.65527 | 34863 ft | 531 kts | 132° |
| 2026-05-06 00:10 | 39.68568 | -86.61385 | 34887 ft | 539 kts | 124° |
| 2026-05-06 00:10 | 39.64865 | -86.52913 | 34859 ft | 539 kts | 125° |
| 2026-05-06 00:11 | 39.61172 | -86.44437 | 34864 ft | 539 kts | 125° |
| 2026-05-06 00:11 | 39.57482 | -86.35981 | 34861 ft | 538 kts | 125° |
| 2026-05-06 00:12 | 39.53814 | -86.27596 | 34859 ft | 538 kts | 125° |
| 2026-05-06 00:12 | 39.50114 | -86.19164 | 34859 ft | 538 kts | 125° |
| 2026-05-06 00:13 | 39.46410 | -86.10746 | 34854 ft | 537 kts | 125° |
| 2026-05-06 00:13 | 39.42706 | -86.02350 | 34864 ft | 537 kts | 125° |
| 2026-05-06 00:14 | 39.38997 | -85.93963 | 34864 ft | 537 kts | 125° |
| 2026-05-06 00:14 | 39.35284 | -85.85590 | 34856 ft | 536 kts | 125° |
| 2026-05-06 00:15 | 39.31562 | -85.77223 | 34866 ft | 536 kts | 125° |
| 2026-05-06 00:15 | 39.27867 | -85.68934 | 34863 ft | 536 kts | 125° |
| 2026-05-06 00:16 | 39.24141 | -85.60602 | 34852 ft | 536 kts | 125° |
| 2026-05-06 00:16 | 39.20408 | -85.52274 | 34838 ft | 536 kts | 125° |
| 2026-05-06 00:17 | 39.16670 | -85.43956 | 34833 ft | 536 kts | 125° |
| 2026-05-06 00:17 | 39.12926 | -85.35649 | 34827 ft | 536 kts | 125° |
| 2026-05-06 00:18 | 39.09182 | -85.27361 | 34823 ft | 536 kts | 125° |
| 2026-05-06 00:18 | 39.05423 | -85.19064 | 34826 ft | 536 kts | 125° |
| 2026-05-06 00:19 | 39.01667 | -85.10794 | 34820 ft | 536 kts | 125° |
| 2026-05-06 00:19 | 38.97921 | -85.02569 | 34819 ft | 536 kts | 125° |
| 2026-05-06 00:20 | 38.94153 | -84.94317 | 34822 ft | 536 kts | 125° |
| 2026-05-06 00:20 | 38.90375 | -84.86062 | 34818 ft | 535 kts | 125° |
| 2026-05-06 00:21 | 38.86594 | -84.77825 | 34828 ft | 536 kts | 125° |
| 2026-05-06 00:21 | 38.82807 | -84.69596 | 34832 ft | 536 kts | 125° |
| 2026-05-06 00:22 | 38.79015 | -84.61376 | 34831 ft | 536 kts | 125° |
| 2026-05-06 00:22 | 38.75212 | -84.53153 | 34841 ft | 536 kts | 125° |
| 2026-05-06 00:23 | 38.71408 | -84.44944 | 34858 ft | 536 kts | 124° |
| 2026-05-06 00:23 | 38.67600 | -84.36748 | 34852 ft | 536 kts | 124° |
| 2026-05-06 00:24 | 38.63406 | -84.28984 | 34859 ft | 521 kts | 141° |
| 2026-05-06 00:24 | 38.58445 | -84.22244 | 34858 ft | 525 kts | 140° |
| 2026-05-06 00:25 | 38.54160 | -84.16419 | 34874 ft | 524 kts | 140° |
| 2026-05-06 00:25 | 38.49150 | -84.09638 | 34870 ft | 524 kts | 140° |
| 2026-05-06 00:26 | 38.44144 | -84.02879 | 34870 ft | 524 kts | 140° |
| 2026-05-06 00:26 | 38.39167 | -83.96174 | 34873 ft | 524 kts | 140° |
| 2026-05-06 00:27 | 38.34143 | -83.89420 | 34874 ft | 524 kts | 140° |
| 2026-05-06 00:27 | 38.29125 | -83.82689 | 34853 ft | 524 kts | 140° |
| 2026-05-06 00:28 | 38.24095 | -83.75955 | 34848 ft | 524 kts | 139° |
| 2026-05-06 00:28 | 38.19068 | -83.69242 | 34840 ft | 524 kts | 139° |
| 2026-05-06 00:29 | 38.14042 | -83.62541 | 34841 ft | 524 kts | 139° |
| 2026-05-06 00:29 | 38.09012 | -83.55852 | 34843 ft | 523 kts | 139° |
| 2026-05-06 00:30 | 38.03976 | -83.49167 | 34854 ft | 524 kts | 139° |
| 2026-05-06 00:30 | 37.98966 | -83.42534 | 34866 ft | 524 kts | 139° |
| 2026-05-06 00:31 | 37.93927 | -83.35874 | 34877 ft | 523 kts | 139° |
| 2026-05-06 00:31 | 37.88878 | -83.29214 | 34890 ft | 523 kts | 139° |
| 2026-05-06 00:32 | 37.83834 | -83.22577 | 34887 ft | 523 kts | 139° |
| 2026-05-06 00:32 | 37.78787 | -83.15949 | 34890 ft | 523 kts | 139° |
| 2026-05-06 00:33 | 37.73737 | -83.09331 | 34891 ft | 523 kts | 139° |
| 2026-05-06 00:33 | 37.68669 | -83.02703 | 34884 ft | 523 kts | 139° |
| 2026-05-06 00:34 | 37.63608 | -82.96099 | 34890 ft | 523 kts | 139° |
| 2026-05-06 00:34 | 37.58549 | -82.89507 | 34892 ft | 522 kts | 139° |
| 2026-05-06 00:35 | 37.53492 | -82.83043 | 34907 ft | 520 kts | 141° |
| 2026-05-06 00:35 | 37.48307 | -82.76681 | 34918 ft | 521 kts | 140° |
| 2026-05-06 00:36 | 37.43126 | -82.70302 | 34909 ft | 521 kts | 140° |
| 2026-05-06 00:36 | 37.37936 | -82.63924 | 34917 ft | 522 kts | 140° |
| 2026-05-06 00:37 | 37.32739 | -82.57550 | 34903 ft | 522 kts | 140° |
| 2026-05-06 00:37 | 37.27540 | -82.51186 | 34913 ft | 522 kts | 140° |
| 2026-05-06 00:38 | 37.22333 | -82.44825 | 34937 ft | 521 kts | 140° |
| 2026-05-06 00:38 | 37.17170 | -82.38532 | 34963 ft | 521 kts | 140° |
| 2026-05-06 00:39 | 37.11974 | -82.32209 | 34942 ft | 521 kts | 140° |
| 2026-05-06 00:39 | 37.06776 | -82.25897 | 34950 ft | 520 kts | 140° |
| 2026-05-06 00:40 | 37.01151 | -82.20436 | 34950 ft | 504 kts | 159° |
| 2026-05-06 00:40 | 36.95016 | -82.16108 | 34924 ft | 506 kts | 158° |
| 2026-05-06 00:40 | 36.91961 | -82.13967 | 34939 ft | 495 kts | 158° |
| 2026-05-06 00:41 | 36.88983 | -82.11905 | 34948 ft | 487 kts | 158° |
| 2026-05-06 00:41 | 36.83078 | -82.07849 | 34964 ft | 483 kts | 158° |
| 2026-05-06 00:42 | 36.77201 | -82.03813 | 34973 ft | 482 kts | 158° |
| 2026-05-06 00:42 | 36.71343 | -81.99796 | 34976 ft | 483 kts | 158° |
| 2026-05-06 00:43 | 36.65400 | -81.95730 | 34979 ft | 494 kts | 158° |
| 2026-05-06 00:43 | 36.59283 | -81.91551 | 34973 ft | 509 kts | 158° |
| 2026-05-06 00:44 | 36.52991 | -81.87260 | 34957 ft | 524 kts | 157° |
| 2026-05-06 00:44 | 36.46508 | -81.82847 | 34951 ft | 533 kts | 157° |
| 2026-05-06 00:45 | 36.40034 | -81.78454 | 34991 ft | 534 kts | 157° |
| 2026-05-06 00:45 | 36.33502 | -81.74032 | 34996 ft | 534 kts | 157° |
| 2026-05-06 00:46 | 36.26969 | -81.69617 | 34988 ft | 534 kts | 157° |
| 2026-05-06 00:46 | 36.20444 | -81.65216 | 34988 ft | 534 kts | 157° |
| 2026-05-06 00:47 | 36.13917 | -81.60823 | 34967 ft | 534 kts | 157° |
| 2026-05-06 00:47 | 36.07377 | -81.56429 | 34988 ft | 535 kts | 157° |
| 2026-05-06 00:48 | 36.00835 | -81.52042 | 34999 ft | 535 kts | 157° |
| 2026-05-06 00:48 | 35.94283 | -81.47657 | 35016 ft | 534 kts | 156° |
| 2026-05-06 00:49 | 35.87790 | -81.43320 | 34993 ft | 534 kts | 156° |
| 2026-05-06 00:49 | 35.84535 | -81.41147 | 35009 ft | 523 kts | 157° |
| 2026-05-06 00:49 | 35.81387 | -81.39049 | 35002 ft | 509 kts | 157° |
| 2026-05-06 00:50 | 35.75223 | -81.34823 | 35005 ft | 505 kts | 156° |
| 2026-05-06 00:50 | 35.69450 | -81.29864 | 34995 ft | 512 kts | 134° |
| 2026-05-06 00:50 | 35.67293 | -81.26367 | 35013 ft | 514 kts | 120° |
| 2026-05-06 00:51 | 35.65797 | -81.22410 | 35004 ft | 507 kts | 105° |
| 2026-05-06 00:51 | 35.65101 | -81.18240 | 34998 ft | 489 kts | 86° |
| 2026-05-06 00:51 | 35.65254 | -81.14132 | 35022 ft | 478 kts | 77° |
| 2026-05-06 00:52 | 35.65928 | -81.06024 | 35014 ft | 480 kts | 77° |
| 2026-05-06 00:52 | 35.66615 | -80.97813 | 35019 ft | 479 kts | 77° |
| 2026-05-06 00:53 | 35.67303 | -80.89666 | 35020 ft | 479 kts | 77° |
| 2026-05-06 00:53 | 35.67978 | -80.81574 | 35013 ft | 479 kts | 77° |
| 2026-05-06 00:54 | 35.68647 | -80.73430 | 35013 ft | 478 kts | 77° |
| 2026-05-06 00:54 | 35.69318 | -80.65297 | 35021 ft | 478 kts | 77° |
| 2026-05-06 00:55 | 35.69998 | -80.57164 | 35019 ft | 477 kts | 77° |
| 2026-05-06 00:55 | 35.70683 | -80.49044 | 35017 ft | 477 kts | 77° |
| 2026-05-06 00:56 | 35.71367 | -80.40941 | 35022 ft | 476 kts | 77° |
| 2026-05-06 00:56 | 35.72057 | -80.32834 | 35019 ft | 475 kts | 76° |
| 2026-05-06 00:57 | 35.72752 | -80.24738 | 35019 ft | 475 kts | 76° |
| 2026-05-06 00:57 | 35.73447 | -80.16708 | 35015 ft | 474 kts | 76° |
| 2026-05-06 00:58 | 35.74149 | -80.08643 | 35014 ft | 474 kts | 76° |
| 2026-05-06 00:58 | 35.74857 | -80.00577 | 35034 ft | 473 kts | 76° |
| 2026-05-06 00:59 | 35.75572 | -79.92535 | 35044 ft | 473 kts | 76° |
| 2026-05-06 00:59 | 35.76290 | -79.84467 | 35040 ft | 473 kts | 76° |
| 2026-05-06 01:00 | 35.77008 | -79.76421 | 35036 ft | 472 kts | 76° |
| 2026-05-06 01:00 | 35.77731 | -79.68370 | 35028 ft | 472 kts | 76° |
| 2026-05-06 01:01 | 35.78451 | -79.60330 | 35039 ft | 472 kts | 76° |
| 2026-05-06 01:01 | 35.79166 | -79.52296 | 35038 ft | 472 kts | 76° |
| 2026-05-06 01:02 | 35.79883 | -79.44256 | 35037 ft | 472 kts | 76° |
| 2026-05-06 01:02 | 35.80608 | -79.36222 | 35031 ft | 472 kts | 76° |
| 2026-05-06 01:03 | 35.81337 | -79.28241 | 35024 ft | 471 kts | 76° |
| 2026-05-06 01:03 | 35.82076 | -79.20217 | 35026 ft | 471 kts | 76° |
| 2026-05-06 01:04 | 35.82818 | -79.12194 | 35024 ft | 471 kts | 76° |
| 2026-05-06 01:04 | 35.83565 | -79.04171 | 35024 ft | 471 kts | 76° |
| 2026-05-06 01:05 | 35.84316 | -78.96168 | 35038 ft | 470 kts | 76° |
| 2026-05-06 01:05 | 35.85071 | -78.88160 | 35041 ft | 469 kts | 76° |
| 2026-05-06 01:06 | 35.85823 | -78.80171 | 35036 ft | 469 kts | 76° |
| 2026-05-06 01:06 | 35.86573 | -78.72189 | 35039 ft | 468 kts | 76° |
| 2026-05-06 01:07 | 35.87322 | -78.64203 | 35038 ft | 468 kts | 76° |
| 2026-05-06 01:07 | 35.88079 | -78.56252 | 35031 ft | 467 kts | 76° |
| 2026-05-06 01:08 | 35.88836 | -78.48345 | 35040 ft | 467 kts | 76° |
| 2026-05-06 01:08 | 35.89603 | -78.40384 | 35048 ft | 467 kts | 75° |
| 2026-05-06 01:09 | 35.90376 | -78.32438 | 35055 ft | 466 kts | 75° |
| 2026-05-06 01:09 | 35.91154 | -78.24497 | 35054 ft | 466 kts | 75° |
| 2026-05-06 01:10 | 35.91936 | -78.16603 | 35047 ft | 465 kts | 75° |
| 2026-05-06 01:10 | 35.92599 | -78.09969 | 35048 ft | 465 kts | 75° |
| 2026-05-06 01:11 | 35.93391 | -78.02051 | 35056 ft | 465 kts | 75° |
| 2026-05-06 01:11 | 35.94194 | -77.94141 | 35056 ft | 464 kts | 75° |
| 2026-05-06 01:12 | 35.95003 | -77.86226 | 35058 ft | 464 kts | 75° |
| 2026-05-06 01:12 | 35.95816 | -77.78383 | 35054 ft | 464 kts | 75° |
| 2026-05-06 01:13 | 35.96645 | -77.70500 | 35063 ft | 463 kts | 75° |
| 2026-05-06 01:13 | 35.97488 | -77.62616 | 35068 ft | 463 kts | 75° |
| 2026-05-06 01:14 | 35.98774 | -77.50810 | 35068 ft | 462 kts | 75° |
| 2026-05-06 01:14 | 35.99644 | -77.42959 | 35066 ft | 461 kts | 75° |
| 2026-05-06 01:15 | 36.00527 | -77.35127 | 35062 ft | 460 kts | 75° |
| 2026-05-06 01:15 | 36.01426 | -77.27303 | 35076 ft | 460 kts | 75° |
| 2026-05-06 01:16 | 36.02336 | -77.19486 | 35077 ft | 459 kts | 75° |
| 2026-05-06 01:16 | 36.03254 | -77.11731 | 35077 ft | 458 kts | 75° |
| 2026-05-06 01:17 | 36.04189 | -77.03937 | 35071 ft | 458 kts | 75° |
| 2026-05-06 01:17 | 36.05139 | -76.96169 | 35070 ft | 457 kts | 75° |
| 2026-05-06 01:18 | 36.06105 | -76.88407 | 35080 ft | 456 kts | 75° |
| 2026-05-06 01:18 | 36.07087 | -76.80666 | 35083 ft | 456 kts | 75° |
| 2026-05-06 01:19 | 36.08083 | -76.72945 | 35093 ft | 455 kts | 75° |
| 2026-05-06 01:19 | 36.09097 | -76.65225 | 35103 ft | 454 kts | 75° |
| 2026-05-06 01:20 | 36.10124 | -76.57523 | 35103 ft | 453 kts | 74° |
| 2026-05-06 01:20 | 36.11162 | -76.49835 | 35096 ft | 453 kts | 74° |
| 2026-05-06 01:21 | 36.12210 | -76.42153 | 35097 ft | 452 kts | 74° |
| 2026-05-06 01:21 | 36.13262 | -76.34531 | 35077 ft | 451 kts | 74° |
| 2026-05-06 01:22 | 36.14328 | -76.26894 | 35085 ft | 451 kts | 74° |
| 2026-05-06 01:22 | 36.15404 | -76.19264 | 35091 ft | 450 kts | 74° |
| 2026-05-06 01:23 | 36.16489 | -76.11631 | 35084 ft | 450 kts | 74° |
| 2026-05-06 01:23 | 36.17582 | -76.04011 | 35084 ft | 449 kts | 74° |
| 2026-05-06 01:24 | 36.18683 | -75.96392 | 35086 ft | 449 kts | 74° |
| 2026-05-06 01:24 | 36.19782 | -75.88849 | 35093 ft | 448 kts | 74° |
| 2026-05-06 01:25 | 36.20895 | -75.81256 | 35105 ft | 448 kts | 74° |
| 2026-05-06 01:25 | 36.22015 | -75.73664 | 35107 ft | 448 kts | 74° |
| 2026-05-06 01:26 | 36.23140 | -75.66078 | 35107 ft | 448 kts | 74° |
| 2026-05-06 01:26 | 36.24273 | -75.58496 | 35106 ft | 447 kts | 74° |
| 2026-05-06 01:27 | 36.25412 | -75.50921 | 35107 ft | 447 kts | 74° |
| 2026-05-06 01:27 | 36.26558 | -75.43357 | 35104 ft | 447 kts | 74° |
| 2026-05-06 01:28 | 36.27709 | -75.35791 | 35106 ft | 446 kts | 74° |
| 2026-05-06 01:28 | 36.28865 | -75.28224 | 35110 ft | 446 kts | 74° |
| 2026-05-06 01:29 | 36.30026 | -75.20669 | 35116 ft | 446 kts | 73° |
| 2026-05-06 01:29 | 36.31180 | -75.13175 | 35118 ft | 445 kts | 73° |
| 2026-05-06 01:30 | 36.32348 | -75.05635 | 35124 ft | 445 kts | 73° |
| 2026-05-06 01:30 | 36.33517 | -74.98100 | 35126 ft | 445 kts | 73° |
| 2026-05-06 01:31 | 36.34690 | -74.90572 | 35129 ft | 445 kts | 73° |
| 2026-05-06 01:31 | 36.35869 | -74.83032 | 35131 ft | 445 kts | 73° |
| 2026-05-06 01:32 | 36.37050 | -74.75498 | 35133 ft | 444 kts | 73° |
| 2026-05-06 01:32 | 36.38234 | -74.67966 | 35135 ft | 444 kts | 73° |
| 2026-05-06 01:33 | 36.39417 | -74.60445 | 35137 ft | 444 kts | 73° |
| 2026-05-06 01:33 | 36.40601 | -74.52922 | 35137 ft | 444 kts | 73° |
| 2026-05-06 01:34 | 36.41785 | -74.45405 | 35140 ft | 443 kts | 73° |
| 2026-05-06 01:34 | 36.42967 | -74.37896 | 35140 ft | 443 kts | 73° |
| 2026-05-06 01:35 | 36.44148 | -74.30401 | 35142 ft | 442 kts | 73° |
| 2026-05-06 01:35 | 36.45323 | -74.22951 | 35142 ft | 442 kts | 73° |
| 2026-05-06 01:36 | 36.46505 | -74.15463 | 35143 ft | 441 kts | 73° |
| 2026-05-06 01:36 | 36.47685 | -74.07984 | 35145 ft | 441 kts | 73° |
| 2026-05-06 01:37 | 36.48866 | -74.00501 | 35149 ft | 441 kts | 73° |
| 2026-05-06 01:37 | 36.50048 | -73.93025 | 35153 ft | 440 kts | 73° |
| 2026-05-06 01:38 | 36.51225 | -73.85561 | 35153 ft | 440 kts | 73° |
| 2026-05-06 01:38 | 36.52405 | -73.78107 | 35153 ft | 439 kts | 73° |
| 2026-05-06 01:39 | 36.53586 | -73.70658 | 35157 ft | 438 kts | 73° |
| 2026-05-06 01:39 | 36.54761 | -73.63271 | 35156 ft | 438 kts | 73° |
| 2026-05-06 01:40 | 36.55946 | -73.55831 | 35157 ft | 437 kts | 73° |
| 2026-05-06 01:40 | 36.57131 | -73.48409 | 35161 ft | 437 kts | 73° |
| 2026-05-06 01:41 | 36.58317 | -73.41006 | 35163 ft | 436 kts | 73° |
| 2026-05-06 01:41 | 36.59497 | -73.33649 | 35162 ft | 436 kts | 73° |